Time;durP1;ratioP1;P1;durP2;ratioP2;P2;SDS_P1;SDS_P2;PMS_P1;PMS_P2;Temp;Humidity;BMP_temperature;BMP_pressure;BME280_temperature;BME280_humidity;BME280_pressure;Samples;Min_cycle;Max_cycle;Signal;HPM_P1;HPM_P2
2024/01/11 00:01:33;;;;;;;24.60;11.63;;;;;;;;;;5043829;28;20023;-64
2024/01/11 00:03:58;;;;;;;24.40;13.02;;;;;;;;;;5047066;28;20065;-64
2024/01/11 00:06:24;;;;;;;27.88;13.07;;;;;;;;;;5044072;28;20016;-64
2024/01/11 00:08:49;;;;;;;24.40;13.48;;;;;;;;;;5047215;28;20130;-63
2024/01/11 00:11:14;;;;;;;24.67;13.80;;;;;;;;;;5045150;28;20900;-65
2024/01/11 00:13:39;;;;;;;30.40;13.50;;;;;;;;;;5048036;28;20032;-65
2024/01/11 00:16:05;;;;;;;22.80;12.45;;;;;;;;;;5044483;28;20036;-65
2024/01/11 00:18:30;;;;;;;23.55;12.32;;;;;;;;;;5045475;28;20074;-65
2024/01/11 00:20:55;;;;;;;25.45;12.13;;;;;;;;;;5044672;28;20035;-65
2024/01/11 00:23:21;;;;;;;25.35;12.15;;;;;;;;;;5032647;28;20993;-65
2024/01/11 00:25:46;;;;;;;33.22;12.82;;;;;;;;;;5039319;28;20779;-65
2024/01/11 00:28:12;;;;;;;21.25;12.75;;;;;;;;;;5039817;28;20090;-66
2024/01/11 00:30:37;;;;;;;25.10;12.63;;;;;;;;;;5044644;28;20994;-65
2024/01/11 00:33:02;;;;;;;22.88;11.48;;;;;;;;;;5043593;28;20043;-65
2024/01/11 00:35:27;;;;;;;23.17;11.57;;;;;;;;;;5036275;28;20024;-65
2024/01/11 00:37:53;;;;;;;24.52;12.20;;;;;;;;;;5039717;28;20032;-66
2024/01/11 00:40:18;;;;;;;20.55;11.00;;;;;;;;;;5039623;28;20032;-65
2024/01/11 00:42:43;;;;;;;24.70;12.43;;;;;;;;;;5043561;28;20130;-65
2024/01/11 00:45:09;;;;;;;33.42;13.70;;;;;;;;;;5042406;28;20028;-66
2024/01/11 00:47:34;;;;;;;23.33;12.43;;;;;;;;;;5048096;28;20042;-65
2024/01/11 00:49:59;;;;;;;21.35;11.50;;;;;;;;;;5046136;28;20882;-65
2024/01/11 00:52:24;;;;;;;29.27;13.05;;;;;;;;;;5048072;28;20800;-67
2024/01/11 00:54:50;;;;;;;24.45;12.20;;;;;;;;;;5046776;28;20056;-65
2024/01/11 00:57:15;;;;;;;26.23;11.07;;;;;;;;;;5047945;28;20894;-65
2024/01/11 00:59:41;;;;;;;29.23;11.45;;;;;;;;;;5041078;28;20899;-65
2024/01/11 01:02:06;;;;;;;29.15;11.30;;;;;;;;;;5043900;28;22101;-65
2024/01/11 01:04:31;;;;;;;24.80;12.00;;;;;;;;;;5046515;28;20051;-65
2024/01/11 01:06:57;;;;;;;23.40;11.02;;;;;;;;;;5046428;28;20036;-65
2024/01/11 01:09:22;;;;;;;20.52;10.52;;;;;;;;;;5047124;28;20202;-65
2024/01/11 01:11:47;;;;;;;19.08;10.93;;;;;;;;;;5047167;28;20888;-65
2024/01/11 01:14:12;;;;;;;23.73;12.20;;;;;;;;;;5046201;28;20090;-64
2024/01/11 01:16:38;;;;;;;22.60;11.70;;;;;;;;;;5041479;28;20138;-64
2024/01/11 01:19:03;;;;;;;21.65;11.88;;;;;;;;;;5042738;28;20020;-64
2024/01/11 01:21:28;;;;;;;23.23;10.77;;;;;;;;;;5045628;28;20028;-64
2024/01/11 01:23:54;;;;;;;27.00;11.65;;;;;;;;;;5046337;28;20013;-64
2024/01/11 01:26:20;;;;;;;25.80;11.65;;;;;;;;;;5046700;28;20116;-65
2024/01/11 01:28:45;;;;;;;24.55;10.93;;;;;;;;;;5041077;28;20020;-63
2024/01/11 01:31:11;;;;;;;28.83;10.82;;;;;;;;;;5044838;28;20028;-65
2024/01/11 01:33:37;;;;;;;25.33;12.30;;;;;;;;;;5047362;28;20028;-64
2024/01/11 01:36:02;;;;;;;25.45;11.40;;;;;;;;;;5047675;28;20034;-63
2024/01/11 01:38:27;;;;;;;20.80;11.07;;;;;;;;;;5043043;28;20036;-64
2024/01/11 01:40:52;;;;;;;22.35;12.18;;;;;;;;;;5045053;28;20958;-64
2024/01/11 01:43:18;;;;;;;31.83;10.63;;;;;;;;;;5048989;28;20936;-64
2024/01/11 01:45:43;;;;;;;20.85;11.25;;;;;;;;;;5047801;28;20897;-64
2024/01/11 01:48:08;;;;;;;23.77;12.20;;;;;;;;;;5047796;28;20062;-64
2024/01/11 01:50:33;;;;;;;24.40;11.52;;;;;;;;;;5045082;28;20862;-64
2024/01/11 01:52:59;;;;;;;20.98;11.05;;;;;;;;;;5045584;28;20146;-64
2024/01/11 01:55:26;;;;;;;27.88;12.23;;;;;;;;;;5046049;28;20039;-64
2024/01/11 01:57:51;;;;;;;24.05;11.55;;;;;;;;;;5046069;28;20889;-64
2024/01/11 02:00:16;;;;;;;31.15;11.52;;;;;;;;;;5044855;28;20024;-64
2024/01/11 02:02:43;;;;;;;25.20;11.45;;;;;;;;;;5042905;28;20090;-64
2024/01/11 02:05:09;;;;;;;24.20;11.20;;;;;;;;;;5047181;28;20032;-63
2024/01/11 02:07:35;;;;;;;20.63;10.75;;;;;;;;;;5047244;28;20942;-64
2024/01/11 02:10:01;;;;;;;23.27;10.65;;;;;;;;;;5047255;28;20134;-64
2024/01/11 02:12:26;;;;;;;24.35;10.50;;;;;;;;;;5045725;28;20089;-65
2024/01/11 02:14:53;;;;;;;23.02;11.32;;;;;;;;;;5044719;28;20028;-64
2024/01/11 02:17:18;;;;;;;18.20;10.43;;;;;;;;;;5040957;28;20016;-64
2024/01/11 02:19:43;;;;;;;28.75;11.70;;;;;;;;;;5045882;28;20857;-63
2024/01/11 02:22:13;;;;;;;22.55;11.15;;;;;;;;;;5041048;28;20051;-64
2024/01/11 02:24:38;;;;;;;21.45;10.57;;;;;;;;;;5046256;28;20109;-64
2024/01/11 02:27:04;;;;;;;23.95;11.65;;;;;;;;;;5044699;28;20028;-64
2024/01/11 02:29:30;;;;;;;23.52;11.25;;;;;;;;;;5045839;28;20849;-63
2024/01/11 02:31:56;;;;;;;19.52;11.55;;;;;;;;;;5046589;28;20150;-63
2024/01/11 02:34:22;;;;;;;24.67;11.13;;;;;;;;;;5045129;28;20156;-63
2024/01/11 02:36:47;;;;;;;30.45;12.23;;;;;;;;;;5044956;28;20016;-63
2024/01/11 02:39:14;;;;;;;31.65;12.73;;;;;;;;;;5046643;28;20039;-63
2024/01/11 02:41:39;;;;;;;25.40;11.82;;;;;;;;;;5044599;28;20089;-63
2024/01/11 02:44:04;;;;;;;27.60;13.20;;;;;;;;;;5037313;28;20020;-63
2024/01/11 02:46:30;;;;;;;25.13;12.15;;;;;;;;;;5045060;28;20081;-64
2024/01/11 02:48:55;;;;;;;23.00;11.93;;;;;;;;;;5043731;28;20108;-63
2024/01/11 02:51:20;;;;;;;30.77;12.38;;;;;;;;;;5045615;28;20048;-63
2024/01/11 02:53:45;;;;;;;29.77;12.70;;;;;;;;;;5036914;28;20051;-63
2024/01/11 02:56:11;;;;;;;25.08;12.70;;;;;;;;;;5044251;28;20884;-63
2024/01/11 02:58:36;;;;;;;23.45;12.63;;;;;;;;;;5034809;28;20831;-65
2024/01/11 03:01:01;;;;;;;23.50;13.13;;;;;;;;;;5046297;28;20941;-63
2024/01/11 03:03:26;;;;;;;21.50;13.13;;;;;;;;;;5046676;28;20878;-63
2024/01/11 03:05:52;;;;;;;28.55;11.95;;;;;;;;;;5053743;28;20017;-65
2024/01/11 03:08:18;;;;;;;27.10;12.60;;;;;;;;;;5045436;28;20028;-63
2024/01/11 03:10:43;;;;;;;23.23;12.73;;;;;;;;;;5044974;28;20024;-63
2024/01/11 03:13:08;;;;;;;29.30;13.38;;;;;;;;;;5043492;28;20027;-64
2024/01/11 03:15:33;;;;;;;21.63;11.88;;;;;;;;;;5043693;28;20105;-64
2024/01/11 03:17:59;;;;;;;19.67;10.45;;;;;;;;;;5044061;28;20035;-63
2024/01/11 03:20:24;;;;;;;25.27;10.55;;;;;;;;;;5039636;28;20027;-64
2024/01/11 03:22:53;;;;;;;23.00;10.57;;;;;;;;;;5043480;28;20081;-63
2024/01/11 03:25:18;;;;;;;26.88;11.75;;;;;;;;;;5044492;28;20043;-63
2024/01/11 03:27:43;;;;;;;22.15;11.90;;;;;;;;;;5045300;28;20024;-63
2024/01/11 03:30:09;;;;;;;24.35;12.27;;;;;;;;;;5044870;28;21094;-63
2024/01/11 03:32:34;;;;;;;25.40;10.90;;;;;;;;;;5041836;28;20035;-63
2024/01/11 03:34:59;;;;;;;27.52;12.93;;;;;;;;;;5045206;28;20020;-63
2024/01/11 03:37:24;;;;;;;23.42;11.98;;;;;;;;;;5042231;28;20030;-65
2024/01/11 03:39:50;;;;;;;27.13;11.70;;;;;;;;;;5036677;28;20078;-65
2024/01/11 03:42:15;;;;;;;24.63;11.70;;;;;;;;;;5044905;28;20884;-64
2024/01/11 03:44:40;;;;;;;24.15;12.32;;;;;;;;;;5044279;28;20887;-63
2024/01/11 03:47:06;;;;;;;22.73;11.63;;;;;;;;;;5045313;28;20147;-64
2024/01/11 03:49:31;;;;;;;30.17;11.38;;;;;;;;;;5046297;28;20820;-64
2024/01/11 03:51:56;;;;;;;25.38;13.00;;;;;;;;;;5047293;28;20028;-64
2024/01/11 03:54:22;;;;;;;24.33;12.32;;;;;;;;;;5044552;28;20031;-63
2024/01/11 03:56:48;;;;;;;30.02;12.30;;;;;;;;;;5043883;28;20020;-64
2024/01/11 03:59:14;;;;;;;25.48;11.13;;;;;;;;;;5046599;28;20039;-63
2024/01/11 04:01:40;;;;;;;25.85;12.10;;;;;;;;;;5046667;28;20056;-64
2024/01/11 04:04:05;;;;;;;28.33;12.18;;;;;;;;;;5043843;28;20040;-62
2024/01/11 04:06:31;;;;;;;28.95;13.48;;;;;;;;;;5043777;28;20020;-62
2024/01/11 04:08:56;;;;;;;24.90;12.23;;;;;;;;;;5045110;28;20135;-63
2024/01/11 04:11:22;;;;;;;27.48;11.82;;;;;;;;;;5045125;28;20081;-62
2024/01/11 04:13:47;;;;;;;28.40;12.27;;;;;;;;;;5042388;28;20040;-62
2024/01/11 04:16:12;;;;;;;22.80;11.18;;;;;;;;;;5035373;28;20074;-62
2024/01/11 04:18:38;;;;;;;26.23;12.05;;;;;;;;;;5045838;28;20932;-62
2024/01/11 04:21:03;;;;;;;27.33;11.80;;;;;;;;;;5045815;28;20081;-64
2024/01/11 04:23:29;;;;;;;30.65;12.25;;;;;;;;;;5049459;28;20055;-64
2024/01/11 04:25:54;;;;;;;25.45;12.48;;;;;;;;;;5042822;28;20027;-64
2024/01/11 04:28:20;;;;;;;29.15;12.60;;;;;;;;;;5044477;28;20122;-65
2024/01/11 04:30:45;;;;;;;32.08;13.15;;;;;;;;;;5042605;28;20883;-64
2024/01/11 04:33:10;;;;;;;24.85;12.18;;;;;;;;;;5043490;28;20024;-64
2024/01/11 04:35:36;;;;;;;23.92;12.02;;;;;;;;;;5043928;28;20058;-65
2024/01/11 04:38:01;;;;;;;26.33;14.25;;;;;;;;;;5043975;28;20750;-65
2024/01/11 04:40:26;;;;;;;32.60;14.10;;;;;;;;;;5042394;28;20879;-65
2024/01/11 04:42:51;;;;;;;25.83;14.55;;;;;;;;;;5042704;28;20058;-64
2024/01/11 04:45:17;;;;;;;28.92;13.48;;;;;;;;;;5044268;28;20024;-64
2024/01/11 04:47:42;;;;;;;24.25;13.80;;;;;;;;;;5044511;28;20070;-64
2024/01/11 04:50:08;;;;;;;34.60;13.77;;;;;;;;;;5042368;28;20854;-64
2024/01/11 04:52:34;;;;;;;30.77;14.18;;;;;;;;;;5042604;28;20034;-64
2024/01/11 04:54:59;;;;;;;27.77;13.23;;;;;;;;;;5036099;28;20020;-64
2024/01/11 04:57:24;;;;;;;26.77;13.60;;;;;;;;;;5037981;28;20020;-63
2024/01/11 04:59:49;;;;;;;31.27;14.30;;;;;;;;;;5043873;28;20059;-64
2024/01/11 05:02:15;;;;;;;23.90;12.77;;;;;;;;;;5042399;28;20091;-64
2024/01/11 05:04:40;;;;;;;28.90;13.38;;;;;;;;;;5043351;28;20066;-63
2024/01/11 05:07:05;;;;;;;26.48;13.77;;;;;;;;;;5043879;28;20896;-63
2024/01/11 05:09:30;;;;;;;38.47;16.48;;;;;;;;;;5044807;28;20895;-63
2024/01/11 05:11:55;;;;;;;29.60;15.77;;;;;;;;;;5043685;28;20051;-64
2024/01/11 05:14:21;;;;;;;34.08;14.75;;;;;;;;;;5044574;28;20131;-64
2024/01/11 05:16:46;;;;;;;35.55;15.88;;;;;;;;;;5044517;28;20941;-64
2024/01/11 05:19:11;;;;;;;30.48;14.88;;;;;;;;;;5045061;28;20942;-64
2024/01/11 05:21:36;;;;;;;31.75;14.30;;;;;;;;;;5043547;28;20805;-63
2024/01/11 05:24:02;;;;;;;28.20;13.25;;;;;;;;;;5043624;28;20024;-63
2024/01/11 05:26:27;;;;;;;29.35;13.43;;;;;;;;;;5043866;28;20028;-63
2024/01/11 05:28:52;;;;;;;30.27;15.07;;;;;;;;;;5043066;28;20027;-63
2024/01/11 05:31:18;;;;;;;29.92;13.95;;;;;;;;;;5043571;28;20121;-64
2024/01/11 05:33:43;;;;;;;33.47;14.82;;;;;;;;;;5043085;28;20055;-64
2024/01/11 05:36:09;;;;;;;31.58;14.45;;;;;;;;;;5044649;28;20133;-63
2024/01/11 05:38:35;;;;;;;23.42;14.02;;;;;;;;;;5037923;28;20143;-63
2024/01/11 05:41:00;;;;;;;26.52;14.00;;;;;;;;;;5049558;28;20074;-64
2024/01/11 05:43:26;;;;;;;34.78;15.48;;;;;;;;;;5049101;28;20092;-63
2024/01/11 05:45:51;;;;;;;32.03;15.55;;;;;;;;;;5046707;28;20077;-63
2024/01/11 05:48:16;;;;;;;35.15;15.88;;;;;;;;;;5045296;28;20087;-63
2024/01/11 05:50:42;;;;;;;31.90;15.45;;;;;;;;;;5050741;28;20042;-63
2024/01/11 05:53:07;;;;;;;35.22;16.73;;;;;;;;;;5048069;28;20174;-64
2024/01/11 05:55:33;;;;;;;31.55;15.68;;;;;;;;;;5045578;28;20155;-64
2024/01/11 05:57:58;;;;;;;33.63;15.88;;;;;;;;;;5027455;28;20052;-64
2024/01/11 06:00:23;;;;;;;35.97;15.80;;;;;;;;;;5047363;28;20028;-64
2024/01/11 06:02:49;;;;;;;33.28;16.98;;;;;;;;;;5047209;28;20024;-64
2024/01/11 06:05:15;;;;;;;31.58;15.30;;;;;;;;;;5045723;28;20869;-64
2024/01/11 06:07:47;;;;;;;37.75;17.85;;;;;;;;;;5051447;28;20036;-64
2024/01/11 06:10:12;;;;;;;32.30;14.90;;;;;;;;;;5048453;28;20045;-64
2024/01/11 06:12:37;;;;;;;30.33;15.43;;;;;;;;;;5052769;28;21005;-64
2024/01/11 06:15:03;;;;;;;37.45;15.88;;;;;;;;;;5046750;28;20085;-64
2024/01/11 06:17:28;;;;;;;31.58;15.90;;;;;;;;;;5045060;28;20054;-64
2024/01/11 06:19:55;;;;;;;34.78;17.30;;;;;;;;;;5047442;28;20035;-64
2024/01/11 06:22:20;;;;;;;30.67;16.08;;;;;;;;;;5045834;28;20052;-64
2024/01/11 06:24:45;;;;;;;33.65;15.52;;;;;;;;;;5046273;28;20033;-63
2024/01/11 06:27:11;;;;;;;38.08;17.17;;;;;;;;;;5045023;28;20031;-65
2024/01/11 06:29:36;;;;;;;34.03;16.75;;;;;;;;;;5047884;28;20560;-64
2024/01/11 06:32:02;;;;;;;43.13;19.95;;;;;;;;;;5049320;28;20057;-64
2024/01/11 06:34:28;;;;;;;38.33;17.60;;;;;;;;;;5041017;28;20016;-64
2024/01/11 06:36:53;;;;;;;37.65;17.88;;;;;;;;;;5047937;28;20020;-63
2024/01/11 06:39:18;;;;;;;35.33;17.80;;;;;;;;;;5045681;28;20028;-63
2024/01/11 06:41:43;;;;;;;36.67;18.20;;;;;;;;;;5043774;28;20027;-63
2024/01/11 06:44:09;;;;;;;34.80;16.67;;;;;;;;;;5047494;28;20081;-63
2024/01/11 06:46:35;;;;;;;42.78;20.85;;;;;;;;;;5042850;28;20113;-63
2024/01/11 06:49:01;;;;;;;33.50;15.25;;;;;;;;;;5043485;28;20028;-63
2024/01/11 06:51:26;;;;;;;33.38;16.25;;;;;;;;;;5045735;28;20059;-63
2024/01/11 06:53:51;;;;;;;30.05;15.70;;;;;;;;;;5047103;28;20032;-63
2024/01/11 06:56:17;;;;;;;35.38;15.75;;;;;;;;;;5045171;28;20142;-63
2024/01/11 06:58:43;;;;;;;32.92;16.20;;;;;;;;;;5045782;28;20139;-63
2024/01/11 07:01:08;;;;;;;28.52;13.57;;;;;;;;;;5044939;28;20028;-63
2024/01/11 07:03:34;;;;;;;33.08;15.15;;;;;;;;;;5044920;28;20031;-63
2024/01/11 07:05:59;;;;;;;27.17;14.65;;;;;;;;;;5043562;28;20020;-63
2024/01/11 07:08:24;;;;;;;26.48;13.73;;;;;;;;;;5043552;28;20027;-63
2024/01/11 07:10:50;;;;;;;31.85;14.02;;;;;;;;;;5042777;28;20031;-63
2024/01/11 07:13:16;;;;;;;37.72;14.65;;;;;;;;;;5043698;28;20028;-64
2024/01/11 07:15:42;;;;;;;31.63;15.48;;;;;;;;;;5043464;28;20030;-64
2024/01/11 07:18:07;;;;;;;29.60;14.48;;;;;;;;;;5042867;28;20032;-64
2024/01/11 07:20:33;;;;;;;29.75;14.90;;;;;;;;;;5044739;28;20028;-63
2024/01/11 07:22:58;;;;;;;32.55;13.63;;;;;;;;;;5044021;28;20012;-64
2024/01/11 07:25:24;;;;;;;35.97;14.93;;;;;;;;;;5043579;28;20028;-64
2024/01/11 07:27:49;;;;;;;34.70;15.43;;;;;;;;;;5044637;28;20035;-63
2024/01/11 07:30:14;;;;;;;32.30;15.32;;;;;;;;;;5045869;28;20042;-63
2024/01/11 07:32:39;;;;;;;30.15;15.27;;;;;;;;;;5048838;28;20059;-64
2024/01/11 07:35:06;;;;;;;33.72;14.82;;;;;;;;;;5044991;28;20027;-63
2024/01/11 07:37:31;;;;;;;39.35;16.23;;;;;;;;;;5044192;28;20023;-63
2024/01/11 07:39:56;;;;;;;32.05;15.43;;;;;;;;;;5044574;28;20083;-63
2024/01/11 07:42:22;;;;;;;34.72;16.48;;;;;;;;;;5046857;28;20082;-63
2024/01/11 07:44:47;;;;;;;33.67;15.85;;;;;;;;;;5043530;28;20846;-64
2024/01/11 07:47:12;;;;;;;31.13;14.73;;;;;;;;;;5045089;28;20859;-64
2024/01/11 07:49:37;;;;;;;30.02;15.55;;;;;;;;;;5037377;28;20974;-63
2024/01/11 07:52:04;;;;;;;39.97;16.02;;;;;;;;;;5044178;28;20895;-64
2024/01/11 07:54:31;;;;;;;28.45;15.15;;;;;;;;;;5049980;28;20872;-63
2024/01/11 07:56:56;;;;;;;28.83;15.63;;;;;;;;;;5047823;28;20529;-63
2024/01/11 07:59:21;;;;;;;28.65;14.25;;;;;;;;;;5044911;28;20032;-63
2024/01/11 08:01:48;;;;;;;32.28;14.77;;;;;;;;;;5043102;28;20353;-63
2024/01/11 08:04:13;;;;;;;30.38;14.60;;;;;;;;;;5043085;28;20026;-63
2024/01/11 08:06:38;;;;;;;39.58;16.17;;;;;;;;;;5045137;28;20127;-63
2024/01/11 08:09:04;;;;;;;43.90;17.58;;;;;;;;;;5041274;28;20032;-63
2024/01/11 08:11:30;;;;;;;36.75;14.95;;;;;;;;;;5039539;28;20049;-63
2024/01/11 08:13:55;;;;;;;32.75;16.88;;;;;;;;;;5042197;28;20028;-63
2024/01/11 08:16:20;;;;;;;34.47;14.15;;;;;;;;;;5044746;28;20549;-63
2024/01/11 08:18:46;;;;;;;36.08;16.98;;;;;;;;;;5046176;28;20028;-63
2024/01/11 08:21:12;;;;;;;33.10;15.60;;;;;;;;;;5047408;28;20866;-63
2024/01/11 08:23:40;;;;;;;43.70;16.90;;;;;;;;;;5043022;28;20038;-63
2024/01/11 08:26:05;;;;;;;30.35;14.50;;;;;;;;;;5043334;28;20035;-63
2024/01/11 08:28:31;;;;;;;36.17;16.65;;;;;;;;;;5045657;28;20035;-63
2024/01/11 08:30:57;;;;;;;29.83;17.27;;;;;;;;;;5045787;28;20031;-63
2024/01/11 08:33:22;;;;;;;31.50;16.83;;;;;;;;;;5043678;28;20020;-64
2024/01/11 08:35:48;;;;;;;35.35;16.50;;;;;;;;;;5043397;28;20840;-64
2024/01/11 08:38:13;;;;;;;32.83;16.50;;;;;;;;;;5044132;28;20762;-64
2024/01/11 08:40:38;;;;;;;39.58;19.05;;;;;;;;;;5052767;28;20773;-64
2024/01/11 08:43:04;;;;;;;37.63;16.77;;;;;;;;;;5044914;28;20809;-64
2024/01/11 08:45:29;;;;;;;39.05;18.05;;;;;;;;;;5036507;28;20049;-63
2024/01/11 08:47:56;;;;;;;42.25;19.75;;;;;;;;;;5043333;28;20020;-62
2024/01/11 08:50:21;;;;;;;40.65;19.42;;;;;;;;;;5045770;28;20031;-64
2024/01/11 08:52:46;;;;;;;38.28;17.52;;;;;;;;;;5044190;28;20020;-63
2024/01/11 08:55:12;;;;;;;31.80;17.90;;;;;;;;;;5042248;28;20086;-64
2024/01/11 08:57:37;;;;;;;38.53;18.73;;;;;;;;;;5036454;28;20017;-64
2024/01/11 09:00:04;;;;;;;38.03;17.55;;;;;;;;;;5043391;28;20055;-64
2024/01/11 09:02:29;;;;;;;33.83;18.92;;;;;;;;;;5043912;28;20027;-64
2024/01/11 09:04:54;;;;;;;33.47;17.63;;;;;;;;;;5046363;28;20895;-64
2024/01/11 09:07:19;;;;;;;36.70;20.35;;;;;;;;;;5044823;28;20017;-63
2024/01/11 09:09:45;;;;;;;35.47;19.35;;;;;;;;;;5046178;28;20956;-63
2024/01/11 09:12:11;;;;;;;37.50;20.10;;;;;;;;;;5048163;28;20062;-63
2024/01/11 09:14:36;;;;;;;37.67;18.58;;;;;;;;;;5047652;28;20143;-63
2024/01/11 09:17:01;;;;;;;41.45;19.90;;;;;;;;;;5048053;28;20059;-64
2024/01/11 09:19:27;;;;;;;39.47;19.88;;;;;;;;;;5047510;28;20044;-63
2024/01/11 09:21:52;;;;;;;39.30;19.13;;;;;;;;;;5045821;28;20386;-63
2024/01/11 09:24:17;;;;;;;36.42;19.60;;;;;;;;;;5047483;28;20849;-64
2024/01/11 09:26:42;;;;;;;33.20;18.08;;;;;;;;;;5047377;28;20942;-65
2024/01/11 09:29:07;;;;;;;38.80;20.73;;;;;;;;;;5047174;28;20020;-65
2024/01/11 09:31:33;;;;;;;45.33;22.00;;;;;;;;;;5041335;28;20888;-63
2024/01/11 09:33:58;;;;;;;38.13;20.80;;;;;;;;;;5046982;28;20844;-63
2024/01/11 09:36:23;;;;;;;39.38;20.65;;;;;;;;;;5043230;28;20743;-62
2024/01/11 09:38:48;;;;;;;42.88;22.15;;;;;;;;;;5045130;28;20028;-65
2024/01/11 09:41:14;;;;;;;48.33;21.60;;;;;;;;;;5046609;28;20056;-64
2024/01/11 09:43:42;;;;;;;38.88;22.38;;;;;;;;;;5045794;28;20024;-63
2024/01/11 09:46:09;;;;;;;41.35;22.45;;;;;;;;;;5046197;28;20771;-63
2024/01/11 09:48:35;;;;;;;43.00;23.52;;;;;;;;;;5047975;28;20070;-65
2024/01/11 09:51:02;;;;;;;42.15;21.45;;;;;;;;;;5044479;28;20050;-63
2024/01/11 09:53:28;;;;;;;39.13;22.52;;;;;;;;;;5027340;28;20031;-63
2024/01/11 09:55:53;;;;;;;48.80;23.85;;;;;;;;;;5045623;28;20054;-62
2024/01/11 09:58:20;;;;;;;38.08;21.08;;;;;;;;;;5046646;28;20074;-65
2024/01/11 10:00:46;;;;;;;42.50;21.10;;;;;;;;;;5046319;28;20077;-63
2024/01/11 10:03:12;;;;;;;41.58;22.50;;;;;;;;;;5044823;28;20117;-62
2024/01/11 10:05:37;;;;;;;38.63;20.63;;;;;;;;;;5037600;28;20032;-62
2024/01/11 10:08:03;;;;;;;40.42;21.38;;;;;;;;;;5045504;28;20751;-63
2024/01/11 10:10:28;;;;;;;36.15;21.13;;;;;;;;;;5046737;28;20978;-63
2024/01/11 10:12:54;;;;;;;38.55;21.75;;;;;;;;;;5045896;28;20043;-63
2024/01/11 10:15:23;;;;;;;43.95;23.10;;;;;;;;;;5046123;28;20066;-63
2024/01/11 10:17:49;;;;;;;39.53;20.60;;;;;;;;;;5044699;28;20042;-63
2024/01/11 10:20:15;;;;;;;42.58;23.10;;;;;;;;;;5043086;28;20039;-63
2024/01/11 10:22:41;;;;;;;37.70;21.05;;;;;;;;;;5046505;28;20958;-63
2024/01/11 10:25:11;;;;;;;39.58;21.23;;;;;;;;;;5043203;28;20032;-64
2024/01/11 10:27:36;;;;;;;40.65;20.92;;;;;;;;;;5043432;28;20016;-64
2024/01/11 10:30:02;;;;;;;45.85;23.48;;;;;;;;;;5044902;28;20024;-64
2024/01/11 10:32:30;;;;;;;36.33;20.27;;;;;;;;;;5043804;28;20903;-64
2024/01/11 10:34:56;;;;;;;43.70;21.15;;;;;;;;;;5033677;28;20020;-64
2024/01/11 10:37:22;;;;;;;38.47;20.35;;;;;;;;;;5044228;28;20041;-65
2024/01/11 10:39:50;;;;;;;41.80;22.42;;;;;;;;;;5046371;28;20028;-65
2024/01/11 10:42:17;;;;;;;35.40;18.73;;;;;;;;;;5027041;28;20831;-64
2024/01/11 10:44:45;;;;;;;36.38;20.85;;;;;;;;;;5045471;28;20016;-64
2024/01/11 10:47:10;;;;;;;33.17;19.65;;;;;;;;;;5046303;28;20901;-65
2024/01/11 10:49:39;;;;;;;41.22;21.00;;;;;;;;;;5046310;28;20024;-64
2024/01/11 10:52:06;;;;;;;37.78;21.52;;;;;;;;;;5045483;28;20028;-64
2024/01/11 10:54:31;;;;;;;35.25;20.27;;;;;;;;;;5045459;28;20028;-64
2024/01/11 10:56:59;;;;;;;36.88;20.95;;;;;;;;;;5046089;28;20908;-64
2024/01/11 10:59:26;;;;;;;39.25;20.77;;;;;;;;;;5046641;28;20067;-65
2024/01/11 11:01:56;;;;;;;35.15;19.38;;;;;;;;;;5045958;28;20053;-65
2024/01/11 11:04:22;;;;;;;37.10;19.90;;;;;;;;;;5046383;28;20110;-67
2024/01/11 11:06:49;;;;;;;33.78;19.38;;;;;;;;;;5046506;28;20086;-65
2024/01/11 11:09:14;;;;;;;37.03;19.60;;;;;;;;;;5045273;28;20028;-64
2024/01/11 11:11:40;;;;;;;38.03;20.52;;;;;;;;;;5044896;28;20613;-65
2024/01/11 11:14:06;;;;;;;35.15;19.45;;;;;;;;;;5044065;28;20071;-65
2024/01/11 11:16:31;;;;;;;37.67;19.88;;;;;;;;;;5046201;28;20025;-66
2024/01/11 11:18:57;;;;;;;41.05;19.90;;;;;;;;;;5037424;28;20888;-65
2024/01/11 11:21:24;;;;;;;36.72;19.77;;;;;;;;;;5036095;28;20149;-63
2024/01/11 11:23:50;;;;;;;39.10;19.77;;;;;;;;;;5045743;28;20052;-65
2024/01/11 11:26:16;;;;;;;40.60;19.98;;;;;;;;;;5046972;28;20031;-65
2024/01/11 11:28:41;;;;;;;36.05;19.95;;;;;;;;;;5043177;28;20024;-64
2024/01/11 11:31:07;;;;;;;32.22;18.70;;;;;;;;;;5043669;28;20783;-65
2024/01/11 11:33:32;;;;;;;31.55;20.35;;;;;;;;;;5044320;28;20028;-66
2024/01/11 11:35:58;;;;;;;37.35;20.05;;;;;;;;;;5035458;28;20958;-65
2024/01/11 11:38:26;;;;;;;31.30;18.83;;;;;;;;;;5041583;28;20036;-63
2024/01/11 11:40:52;;;;;;;32.47;19.08;;;;;;;;;;5048307;28;20028;-65
2024/01/11 11:43:18;;;;;;;31.92;18.30;;;;;;;;;;5048995;28;20164;-64
2024/01/11 11:45:43;;;;;;;34.50;16.27;;;;;;;;;;5035980;28;20035;-65
2024/01/11 11:48:27;;;;;;;31.80;17.67;;;;;;;;;;5043306;28;20024;-65
2024/01/11 11:51:11;;;;;;;26.77;17.05;;;;;;;;;;5034452;28;20025;-64
2024/01/11 11:53:37;;;;;;;28.50;16.15;;;;;;;;;;5040388;28;20023;-65
2024/01/11 11:56:03;;;;;;;29.58;15.93;;;;;;;;;;5044531;28;21009;-64
2024/01/11 11:58:29;;;;;;;28.85;15.55;;;;;;;;;;5045974;28;20899;-64
2024/01/11 12:01:04;;;;;;;28.83;15.50;;;;;;;;;;5045290;28;20094;-64
2024/01/11 12:03:33;;;;;;;28.58;17.55;;;;;;;;;;5041785;28;20082;-65
2024/01/11 12:05:59;;;;;;;29.33;16.45;;;;;;;;;;5044524;28;20035;-64
2024/01/11 12:08:24;;;;;;;29.45;15.43;;;;;;;;;;5043513;28;20020;-64
2024/01/11 12:10:50;;;;;;;27.27;15.32;;;;;;;;;;5042073;28;20939;-64
2024/01/11 12:13:15;;;;;;;25.27;15.73;;;;;;;;;;5043670;28;20038;-65
2024/01/11 12:15:41;;;;;;;29.55;15.23;;;;;;;;;;5039158;28;20016;-65
2024/01/11 12:18:06;;;;;;;26.38;15.15;;;;;;;;;;5044161;28;20028;-64
2024/01/11 12:20:32;;;;;;;29.25;16.17;;;;;;;;;;5044511;28;20036;-65
2024/01/11 12:22:58;;;;;;;27.55;13.63;;;;;;;;;;5043167;28;20048;-65
2024/01/11 12:25:23;;;;;;;26.50;14.13;;;;;;;;;;5043405;28;20055;-65
2024/01/11 12:27:48;;;;;;;24.83;14.85;;;;;;;;;;5044140;28;20921;-65
2024/01/11 12:30:16;;;;;;;25.90;14.38;;;;;;;;;;5043567;28;20875;-65
2024/01/11 12:32:42;;;;;;;29.10;15.27;;;;;;;;;;5045021;28;20024;-65
2024/01/11 12:35:07;;;;;;;27.27;14.10;;;;;;;;;;5039201;28;20035;-65
2024/01/11 12:37:33;;;;;;;27.30;14.15;;;;;;;;;;5044583;28;20051;-65
2024/01/11 12:39:58;;;;;;;27.77;14.73;;;;;;;;;;5043783;28;20049;-66
2024/01/11 12:42:24;;;;;;;24.60;14.13;;;;;;;;;;5037552;28;20977;-66
2024/01/11 12:44:50;;;;;;;24.27;13.77;;;;;;;;;;5043687;28;20020;-66
2024/01/11 12:47:16;;;;;;;24.00;14.45;;;;;;;;;;5048894;28;20059;-66
2024/01/11 12:49:46;;;;;;;27.88;14.68;;;;;;;;;;5048206;28;20068;-66
2024/01/11 12:52:17;;;;;;;23.10;13.95;;;;;;;;;;5043811;28;20032;-66
2024/01/11 12:54:45;;;;;;;24.92;13.43;;;;;;;;;;5043253;28;20043;-66
2024/01/11 12:57:11;;;;;;;24.30;13.27;;;;;;;;;;5042492;28;20038;-66
2024/01/11 12:59:36;;;;;;;24.67;13.23;;;;;;;;;;5044366;28;20048;-66
2024/01/11 13:02:02;;;;;;;27.65;13.80;;;;;;;;;;5043682;28;21009;-65
2024/01/11 13:04:27;;;;;;;27.48;14.13;;;;;;;;;;5040659;28;20031;-66
2024/01/11 13:06:53;;;;;;;21.92;13.68;;;;;;;;;;5044526;28;20038;-66
2024/01/11 13:09:18;;;;;;;24.15;13.88;;;;;;;;;;5042984;28;20028;-65
2024/01/11 13:11:44;;;;;;;24.73;14.77;;;;;;;;;;5042743;28;20020;-66
2024/01/11 13:14:14;;;;;;;22.35;12.60;;;;;;;;;;5044470;28;21151;-65
2024/01/11 13:16:39;;;;;;;21.30;12.75;;;;;;;;;;5039018;28;20032;-65
2024/01/11 13:19:04;;;;;;;26.30;14.60;;;;;;;;;;5038144;28;20039;-65
2024/01/11 13:21:30;;;;;;;24.38;14.02;;;;;;;;;;5044158;28;20954;-65
2024/01/11 13:23:56;;;;;;;20.90;12.77;;;;;;;;;;5043423;28;20155;-65
2024/01/11 13:26:22;;;;;;;19.10;12.95;;;;;;;;;;5041234;28;20032;-65
2024/01/11 13:28:47;;;;;;;27.98;13.88;;;;;;;;;;5044331;28;20055;-65
2024/01/11 13:31:12;;;;;;;24.60;12.90;;;;;;;;;;5042564;28;20246;-65
2024/01/11 13:33:38;;;;;;;26.87;13.20;;;;;;;;;;5041970;28;20624;-65
2024/01/11 13:36:03;;;;;;;24.67;12.77;;;;;;;;;;5043119;28;20266;-65
2024/01/11 13:38:28;;;;;;;21.20;11.90;;;;;;;;;;5043693;28;20202;-65
2024/01/11 13:40:54;;;;;;;18.48;13.00;;;;;;;;;;5040302;28;20024;-66
2024/01/11 13:43:19;;;;;;;28.65;13.30;;;;;;;;;;5041945;28;20109;-66
2024/01/11 13:45:44;;;;;;;24.67;13.17;;;;;;;;;;5043004;28;20043;-65
2024/01/11 13:48:10;;;;;;;23.70;13.88;;;;;;;;;;5039435;28;20312;-65
2024/01/11 13:50:35;;;;;;;22.83;12.55;;;;;;;;;;5045922;28;20101;-65
2024/01/11 13:53:00;;;;;;;25.70;13.95;;;;;;;;;;5044163;28;20117;-65
2024/01/11 13:55:25;;;;;;;21.02;12.70;;;;;;;;;;5044622;28;20939;-66
2024/01/11 13:57:51;;;;;;;18.73;12.52;;;;;;;;;;5048383;28;20786;-66
2024/01/11 14:00:18;;;;;;;26.00;13.30;;;;;;;;;;5045599;28;20863;-65
2024/01/11 14:02:43;;;;;;;21.73;12.85;;;;;;;;;;5047827;28;20022;-67
2024/01/11 14:05:11;;;;;;;22.50;13.60;;;;;;;;;;5046197;28;20861;-66
2024/01/11 14:07:37;;;;;;;23.20;13.13;;;;;;;;;;5046249;28;20067;-66